createdAt,value
2024-02-26T00:01:03.177Z,10.33
2024-02-26T00:03:36.840Z,10.32
2024-02-26T00:06:08.270Z,10.29
2024-02-26T00:08:39.038Z,10.27
2024-02-26T00:11:09.734Z,10.25
2024-02-26T00:13:40.845Z,10.23
2024-02-26T00:16:11.528Z,10.20
2024-02-26T00:18:42.641Z,10.17
2024-02-26T00:21:13.969Z,10.15
2024-02-26T00:23:44.714Z,10.13
2024-02-26T00:26:16.402Z,10.11
2024-02-26T00:28:47.093Z,10.09
2024-02-26T00:31:18.092Z,10.09
2024-02-26T00:33:48.856Z,10.09
2024-02-26T00:36:20.710Z,10.09
2024-02-26T00:38:52.808Z,10.08
2024-02-26T00:41:24.437Z,10.06
2024-02-26T00:43:55.045Z,10.04
2024-02-26T00:46:26.205Z,10.03
2024-02-26T00:48:56.983Z,10.02
2024-02-26T00:51:27.922Z,10.02
2024-02-26T00:53:59.137Z,10.02
2024-02-26T00:56:30.088Z,10.02
2024-02-26T00:59:00.861Z,10.02
2024-02-26T01:01:31.575Z,10.01
2024-02-26T01:04:02.319Z,10.02
2024-02-26T01:06:33.205Z,10.00
2024-02-26T01:09:04.158Z,9.99
2024-02-26T01:11:35.066Z,9.99
2024-02-26T01:14:05.801Z,9.99
2024-02-26T01:16:36.535Z,9.98
2024-02-26T01:19:07.365Z,9.97
2024-02-26T01:21:38.225Z,9.97
2024-02-26T01:24:09.618Z,9.96
2024-02-26T01:26:40.387Z,9.95
2024-02-26T01:29:11.085Z,9.94
2024-02-26T01:31:41.729Z,9.93
2024-02-26T01:34:12.489Z,9.91
2024-02-26T01:36:43.239Z,9.90
2024-02-26T01:39:14.477Z,9.88
2024-02-26T01:41:45.384Z,9.86
2024-02-26T01:44:16.948Z,9.84
2024-02-26T01:46:47.685Z,9.82
2024-02-26T01:49:18.950Z,9.81
2024-02-26T01:51:50.091Z,9.80
2024-02-26T01:54:21.169Z,9.78
2024-02-26T01:56:53.094Z,9.76
2024-02-26T01:59:24.617Z,9.75
2024-02-26T02:01:59.743Z,9.74
2024-02-26T02:04:30.599Z,9.72
2024-02-26T02:07:02.522Z,9.72
2024-02-26T02:09:33.980Z,9.70
2024-02-26T02:12:05.275Z,9.69
2024-02-26T02:14:36.002Z,9.67
2024-02-26T02:17:06.698Z,9.66
2024-02-26T02:19:37.434Z,9.66
2024-02-26T02:22:08.355Z,9.66
2024-02-26T02:24:39.001Z,9.67
2024-02-26T02:27:09.789Z,9.67
2024-02-26T02:29:43.703Z,9.67
2024-02-26T02:32:14.949Z,9.67
2024-02-26T02:34:46.007Z,9.67
2024-02-26T02:37:16.813Z,9.66
2024-02-26T02:39:47.485Z,9.65
2024-02-26T02:42:18.165Z,9.64
2024-02-26T02:44:48.892Z,9.64
2024-02-26T02:47:19.573Z,9.65
2024-02-26T02:49:50.400Z,9.65
2024-02-26T02:52:21.110Z,9.64
2024-02-26T02:54:51.768Z,9.62
2024-02-26T02:57:22.723Z,9.61
2024-02-26T02:59:53.416Z,9.61
2024-02-26T03:02:26.076Z,9.61
2024-02-26T03:04:56.752Z,9.57
2024-02-26T03:07:27.577Z,9.55
2024-02-26T03:09:58.352Z,9.53
2024-02-26T03:12:30.183Z,9.50
2024-02-26T03:15:03.784Z,9.49
2024-02-26T03:17:34.598Z,9.47
2024-02-26T03:20:06.511Z,9.46
2024-02-26T03:22:37.306Z,9.45
2024-02-26T03:25:09.629Z,9.45
2024-02-26T03:27:40.343Z,9.44
2024-02-26T03:30:12.324Z,9.44
2024-02-26T03:32:43.094Z,9.43
2024-02-26T03:35:14.426Z,9.41
2024-02-26T03:37:45.110Z,9.39
2024-02-26T03:40:17.224Z,9.37
2024-02-26T03:42:47.837Z,9.36
2024-02-26T03:45:18.906Z,9.34
2024-02-26T03:47:49.682Z,9.32
2024-02-26T03:50:20.490Z,9.31
2024-02-26T03:52:51.179Z,9.29
2024-02-26T03:55:26.067Z,9.28
2024-02-26T03:57:57.008Z,9.28
2024-02-26T04:00:30.407Z,9.27
2024-02-26T04:03:01.180Z,9.25
2024-02-26T04:05:31.820Z,9.23
2024-02-26T04:08:02.492Z,9.21
2024-02-26T04:10:33.274Z,9.20
2024-02-26T04:13:05.114Z,9.20
2024-02-26T04:15:35.791Z,9.19
2024-02-26T04:18:07.361Z,9.18
2024-02-26T04:20:38.100Z,9.19
2024-02-26T04:23:08.879Z,9.20
2024-02-26T04:25:39.498Z,9.20
2024-02-26T04:28:10.675Z,9.20
2024-02-26T04:30:41.345Z,9.18
2024-02-26T04:33:12.092Z,9.17
2024-02-26T04:35:43.800Z,9.15
2024-02-26T04:38:14.569Z,9.13
2024-02-26T04:40:45.229Z,9.11
2024-02-26T04:43:16.919Z,9.09
2024-02-26T04:45:47.527Z,9.07
2024-02-26T04:48:18.277Z,9.05
2024-02-26T04:50:49.014Z,9.02
2024-02-26T04:53:19.691Z,9.01
2024-02-26T04:55:50.403Z,9.00
2024-02-26T04:58:21.076Z,8.99
2024-02-26T05:00:51.797Z,8.99
2024-02-26T05:03:22.720Z,8.99
2024-02-26T05:05:53.598Z,9.00
2024-02-26T05:08:24.330Z,9.03
2024-02-26T05:10:55.062Z,9.03
2024-02-26T05:13:25.727Z,9.06
2024-02-26T05:15:56.441Z,9.08
2024-02-26T05:18:27.207Z,9.10
2024-02-26T05:20:57.949Z,9.11
2024-02-26T05:23:28.825Z,9.11
2024-02-26T05:25:59.484Z,9.11
2024-02-26T05:28:30.136Z,9.10
2024-02-26T05:31:01.288Z,9.09
2024-02-26T05:33:32.041Z,9.08
2024-02-26T05:36:05.436Z,9.08
2024-02-26T05:38:36.889Z,9.08
2024-02-26T05:41:09.338Z,9.07
2024-02-26T05:43:39.973Z,9.07
2024-02-26T05:46:10.640Z,9.07
2024-02-26T05:48:41.522Z,9.07
2024-02-26T05:51:13.420Z,9.07
2024-02-26T05:53:44.176Z,9.07
2024-02-26T05:56:14.854Z,9.07
2024-02-26T05:58:45.488Z,9.06
2024-02-26T06:01:17.315Z,9.07
2024-02-26T06:03:48.088Z,9.08
2024-02-26T06:06:19.087Z,9.08
2024-02-26T06:08:50.156Z,9.09
2024-02-26T06:11:21.556Z,9.10
2024-02-26T06:13:52.185Z,9.10
2024-02-26T06:16:22.790Z,9.11
2024-02-26T06:18:53.429Z,9.13
2024-02-26T06:21:24.213Z,9.14
2024-02-26T06:23:54.886Z,9.14
2024-02-26T06:26:25.542Z,9.15
2024-02-26T06:28:56.179Z,9.15
2024-02-26T06:31:28.819Z,9.15
2024-02-26T06:33:59.699Z,9.15
2024-02-26T06:36:32.635Z,9.16
2024-02-26T06:39:03.785Z,9.16
2024-02-26T06:41:34.422Z,9.17
2024-02-26T06:44:05.669Z,9.18
2024-02-26T06:46:36.302Z,9.19
2024-02-26T06:49:07.383Z,9.19
2024-02-26T06:51:38.083Z,9.20
2024-02-26T06:54:09.146Z,9.20
2024-02-26T06:56:39.844Z,9.21
2024-02-26T06:59:10.572Z,9.22
2024-02-26T07:01:43.129Z,9.23
2024-02-26T07:04:14.122Z,9.25
2024-02-26T07:06:45.199Z,9.27
2024-02-26T07:09:16.850Z,9.29
2024-02-26T07:11:47.596Z,9.30
2024-02-26T07:14:18.212Z,9.32
2024-02-26T07:16:49.073Z,9.33
2024-02-26T07:19:19.838Z,9.35
2024-02-26T07:21:50.625Z,9.38
2024-02-26T07:24:21.314Z,9.41
2024-02-26T07:26:51.974Z,9.44
2024-02-26T07:29:22.686Z,9.46
2024-02-26T07:31:53.317Z,9.47
2024-02-26T07:34:28.812Z,9.51
2024-02-26T07:36:59.722Z,9.54
2024-02-26T07:39:30.406Z,9.57
2024-02-26T07:42:01.098Z,9.60
2024-02-26T07:44:32.107Z,9.63
2024-02-26T07:47:04.130Z,9.67
2024-02-26T07:49:37.497Z,9.70
2024-02-26T07:52:10.110Z,9.72
2024-02-26T07:54:40.782Z,9.74
2024-02-26T07:57:11.444Z,9.78
2024-02-26T07:59:46.076Z,9.81
2024-02-26T08:02:16.863Z,9.83
2024-02-26T08:04:47.472Z,9.87
2024-02-26T08:07:18.279Z,9.90
2024-02-26T08:09:49.160Z,9.94
2024-02-26T08:12:19.952Z,9.97
2024-02-26T08:14:50.741Z,10.01
2024-02-26T08:17:21.412Z,10.05
2024-02-26T08:19:52.463Z,10.08
2024-02-26T08:22:23.298Z,10.12
2024-02-26T08:24:53.942Z,10.16
2024-02-26T08:27:25.814Z,10.20
2024-02-26T08:29:55.188Z,10.23
2024-02-26T08:32:25.942Z,10.27
2024-02-26T08:34:57.085Z,10.33
2024-02-26T08:37:27.824Z,10.38
2024-02-26T08:40:00.942Z,10.43
2024-02-26T08:42:33.339Z,10.47
2024-02-26T08:45:04.629Z,10.52
2024-02-26T08:47:35.368Z,10.59
2024-02-26T08:50:06.532Z,10.66
2024-02-26T08:52:37.931Z,10.73
2024-02-26T08:55:10.453Z,10.79
2024-02-26T08:57:41.144Z,10.85
2024-02-26T09:00:13.874Z,10.91
2024-02-26T09:02:45.225Z,10.97
2024-02-26T09:05:16.025Z,11.04
2024-02-26T09:07:47.562Z,11.10
2024-02-26T09:10:18.756Z,11.15
2024-02-26T09:12:49.549Z,11.21
2024-02-26T09:15:20.544Z,11.26
2024-02-26T09:17:53.314Z,11.31
2024-02-26T09:20:24.913Z,11.35
2024-02-26T09:22:55.744Z,11.41
2024-02-26T09:25:26.441Z,11.46
2024-02-26T09:27:57.187Z,11.50
2024-02-26T09:30:28.254Z,11.54
2024-02-26T09:32:58.971Z,11.60
2024-02-26T09:35:30.374Z,11.67
2024-02-26T09:38:01.020Z,11.73
2024-02-26T09:40:31.734Z,11.79
2024-02-26T09:43:07.015Z,11.87
2024-02-26T09:45:38.831Z,11.93
2024-02-26T09:48:14.212Z,11.99
2024-02-26T09:50:46.224Z,12.04
2024-02-26T09:53:16.946Z,12.09
2024-02-26T09:55:47.812Z,12.15
2024-02-26T09:58:20.179Z,12.22
2024-02-26T10:00:57.720Z,12.28
2024-02-26T10:03:30.978Z,12.35
2024-02-26T10:06:03.981Z,12.41
2024-02-26T10:08:36.294Z,12.46
2024-02-26T10:11:07.539Z,12.50
2024-02-26T10:13:38.348Z,12.54
2024-02-26T10:16:09.830Z,12.57
2024-02-26T10:18:58.877Z,12.59
2024-02-26T10:21:31.174Z,12.65
2024-02-26T10:24:01.922Z,12.71
2024-02-26T10:26:32.933Z,12.76
2024-02-26T10:29:05.450Z,12.82
2024-02-26T10:31:36.113Z,12.87
2024-02-26T10:34:07.366Z,12.92
2024-02-26T10:36:44.759Z,12.94
2024-02-26T10:39:23.405Z,12.96
2024-02-26T10:41:54.260Z,12.99
2024-02-26T10:44:25.001Z,13.01
2024-02-26T10:46:56.222Z,13.04
2024-02-26T10:49:27.235Z,13.04
2024-02-26T10:51:59.980Z,13.06
2024-02-26T10:54:34.749Z,13.08
2024-02-26T10:57:07.434Z,13.13
2024-02-26T10:59:38.855Z,13.20
2024-02-26T11:02:12.433Z,13.28
2024-02-26T11:04:43.344Z,13.36
2024-02-26T11:07:15.185Z,13.42
2024-02-26T11:09:53.063Z,13.49
2024-02-26T11:12:25.032Z,13.57
2024-02-26T11:14:56.377Z,13.64
2024-02-26T11:17:28.507Z,13.70
2024-02-26T11:19:59.001Z,13.77
2024-02-26T11:22:30.212Z,13.81
2024-02-26T11:25:02.429Z,13.87
2024-02-26T11:27:37.408Z,13.93
2024-02-26T11:30:13.196Z,13.98
2024-02-26T11:32:46.128Z,14.04
2024-02-26T11:35:19.695Z,14.10
2024-02-26T11:37:57.810Z,14.15
2024-02-26T11:40:29.547Z,14.20
2024-02-26T11:43:00.285Z,14.26
2024-02-26T11:45:53.963Z,14.32
2024-02-26T11:48:31.286Z,14.38
2024-02-26T11:51:02.124Z,14.42
2024-02-26T11:53:35.834Z,14.45
2024-02-26T11:56:27.179Z,14.50
2024-02-26T11:59:04.342Z,14.54
2024-02-26T12:01:46.279Z,14.57
2024-02-26T12:04:19.537Z,14.63
2024-02-26T12:06:52.862Z,14.67
2024-02-26T12:09:38.224Z,14.68
2024-02-26T12:12:11.278Z,14.71
2024-02-26T12:15:00.012Z,14.73
2024-02-26T12:17:31.011Z,14.76
2024-02-26T12:20:12.555Z,14.79
2024-02-26T12:22:46.180Z,14.85
2024-02-26T12:25:17.155Z,14.87
2024-02-26T12:27:47.826Z,14.89
2024-02-26T12:30:19.161Z,14.94
2024-02-26T12:32:50.988Z,14.99
2024-02-26T12:35:22.219Z,15.04
2024-02-26T12:37:53.496Z,15.08
2024-02-26T12:40:24.675Z,15.10
2024-02-26T12:42:57.244Z,15.11
2024-02-26T12:45:29.931Z,15.13
2024-02-26T12:48:01.547Z,15.14
2024-02-26T12:50:33.275Z,15.14
2024-02-26T12:53:04.093Z,15.15
2024-02-26T12:55:37.639Z,15.17
2024-02-26T12:58:08.642Z,15.16
2024-02-26T13:00:40.845Z,15.16
2024-02-26T13:03:12.141Z,15.14
2024-02-26T13:05:43.685Z,15.12
2024-02-26T13:08:21.377Z,15.12
2024-02-26T13:10:53.102Z,15.11
2024-02-26T13:13:24.722Z,15.11
2024-02-26T13:16:05.898Z,15.12
2024-02-26T13:18:37.958Z,15.14
2024-02-26T13:21:16.729Z,15.18
2024-02-26T13:23:54.469Z,15.21
2024-02-26T13:26:26.941Z,15.22
2024-02-26T13:29:06.690Z,15.22
2024-02-26T13:31:44.842Z,15.23
2024-02-26T13:34:27.915Z,15.21
2024-02-26T13:36:59.303Z,15.16
2024-02-26T13:39:31.637Z,15.13
2024-02-26T13:42:02.521Z,15.10
2024-02-26T13:44:34.733Z,15.07
2024-02-26T13:47:05.539Z,15.04
2024-02-26T13:49:36.209Z,15.00
2024-02-26T13:52:07.290Z,14.98
2024-02-26T13:54:39.777Z,14.96
2024-02-26T13:57:11.000Z,14.93
2024-02-26T13:59:43.544Z,14.92
2024-02-26T14:02:14.352Z,14.93
2024-02-26T14:04:45.912Z,14.94
2024-02-26T14:07:18.703Z,14.94
2024-02-26T14:09:50.796Z,14.94
2024-02-26T14:12:23.961Z,14.95
2024-02-26T14:14:56.947Z,14.94
2024-02-26T14:17:27.686Z,14.94
2024-02-26T14:19:58.534Z,14.94
2024-02-26T14:22:29.347Z,14.94
2024-02-26T14:25:00.713Z,14.93
2024-02-26T14:27:31.598Z,14.92
2024-02-26T14:30:02.372Z,14.89
2024-02-26T14:32:36.411Z,14.89
2024-02-26T14:35:13.681Z,14.88
2024-02-26T14:37:49.141Z,14.85
2024-02-26T14:40:20.081Z,14.84
2024-02-26T14:42:51.073Z,14.82
2024-02-26T14:45:21.710Z,14.81
2024-02-26T14:47:52.445Z,14.82
2024-02-26T14:50:23.533Z,14.82
2024-02-26T14:52:54.129Z,14.82
2024-02-26T14:55:24.969Z,14.80
2024-02-26T14:57:55.649Z,14.80
2024-02-26T15:00:26.321Z,14.81
2024-02-26T15:02:57.028Z,14.81
2024-02-26T15:05:27.680Z,14.81
2024-02-26T15:07:58.413Z,14.81
2024-02-26T15:10:29.887Z,14.81
2024-02-26T15:13:00.533Z,14.81
2024-02-26T15:15:32.243Z,14.80
2024-02-26T15:18:03.631Z,14.80
2024-02-26T15:20:34.593Z,14.80
2024-02-26T15:23:05.368Z,14.80
2024-02-26T15:25:36.184Z,14.80
2024-02-26T15:28:08.054Z,14.80
2024-02-26T15:30:39.177Z,14.79
2024-02-26T15:33:10.674Z,14.79
2024-02-26T15:35:43.602Z,14.79
2024-02-26T15:38:15.003Z,14.79
2024-02-26T15:40:47.948Z,14.79
2024-02-26T15:43:20.775Z,14.78
2024-02-26T15:45:51.912Z,14.77
2024-02-26T15:48:22.733Z,14.76
2024-02-26T15:50:53.565Z,14.76
2024-02-26T15:53:24.286Z,14.76
2024-02-26T15:55:54.928Z,14.76
2024-02-26T15:59:16.392Z,14.76
2024-02-26T16:01:47.378Z,14.75
2024-02-26T16:04:18.293Z,14.76
2024-02-26T16:06:54.459Z,14.76
2024-02-26T16:09:25.289Z,14.78
2024-02-26T16:11:56.032Z,14.77
2024-02-26T16:14:38.904Z,14.79
2024-02-26T16:17:17.417Z,14.78
2024-02-26T16:19:48.301Z,14.78
2024-02-26T16:22:19.126Z,14.77
2024-02-26T16:24:49.869Z,14.77
2024-02-26T16:27:20.511Z,14.77
2024-02-26T16:29:51.340Z,14.77
2024-02-26T16:32:23.203Z,14.76
2024-02-26T16:34:54.254Z,14.76
2024-02-26T16:37:25.238Z,14.76
2024-02-26T16:39:56.223Z,14.77
2024-02-26T16:42:26.905Z,14.76
2024-02-26T16:44:58.032Z,14.76
2024-02-26T16:47:28.900Z,14.76
2024-02-26T16:49:59.587Z,14.76
2024-02-26T16:52:30.675Z,14.76
2024-02-26T16:55:04.491Z,14.76
2024-02-26T16:57:36.955Z,14.76
2024-02-26T17:00:12.060Z,14.75
2024-02-26T17:02:43.170Z,14.75
2024-02-26T17:05:14.882Z,14.75
2024-02-26T17:07:46.267Z,14.74
2024-02-26T17:10:18.066Z,14.73
2024-02-26T17:12:48.664Z,14.72
2024-02-26T17:15:19.728Z,14.72
2024-02-26T17:17:50.606Z,14.72
2024-02-26T17:20:22.363Z,14.71
2024-02-26T17:22:52.992Z,14.70
2024-02-26T17:25:23.739Z,14.70
2024-02-26T17:27:54.384Z,14.70
2024-02-26T17:30:25.329Z,14.69
2024-02-26T17:32:56.911Z,14.69
2024-02-26T17:35:27.628Z,14.69
2024-02-26T17:37:58.676Z,14.68
2024-02-26T17:40:29.394Z,14.66
2024-02-26T17:43:01.976Z,14.66
2024-02-26T17:45:33.432Z,14.64
2024-02-26T17:48:05.050Z,14.64
2024-02-26T17:50:35.825Z,14.63
2024-02-26T17:53:06.866Z,14.63
2024-02-26T17:55:37.492Z,14.62
2024-02-26T17:58:08.473Z,14.61
2024-02-26T18:00:39.391Z,14.60
2024-02-26T18:03:10.180Z,14.61
2024-02-26T18:05:42.724Z,14.60
2024-02-26T18:08:14.362Z,14.60
2024-02-26T18:10:45.190Z,14.60
2024-02-26T18:13:15.902Z,14.59
2024-02-26T18:15:47.157Z,14.59
2024-02-26T18:18:17.906Z,14.59
2024-02-26T18:20:48.714Z,14.59
2024-02-26T18:23:19.334Z,14.58
2024-02-26T18:25:51.360Z,14.58
2024-02-26T18:28:22.752Z,14.58
2024-02-26T18:30:53.535Z,14.57
2024-02-26T18:33:24.999Z,14.56
2024-02-26T18:35:56.031Z,14.55
2024-02-26T18:38:27.827Z,14.54
2024-02-26T18:40:58.479Z,14.53
2024-02-26T18:43:29.347Z,14.52
2024-02-26T18:46:00.178Z,14.51
2024-02-26T18:48:32.910Z,14.49
2024-02-26T18:51:05.836Z,14.49
2024-02-26T18:53:36.525Z,14.49
2024-02-26T18:56:08.072Z,14.48
2024-02-26T18:58:38.885Z,14.48
2024-02-26T19:01:09.827Z,14.47
2024-02-26T19:03:40.551Z,14.46
2024-02-26T19:06:13.418Z,14.46
2024-02-26T19:08:44.143Z,14.46
2024-02-26T19:11:16.601Z,14.46
2024-02-26T19:13:47.376Z,14.46
2024-02-26T19:16:24.243Z,14.45
2024-02-26T19:18:55.944Z,14.44
2024-02-26T19:21:25.228Z,14.43
2024-02-26T19:23:56.035Z,14.42
2024-02-26T19:26:26.740Z,14.42
2024-02-26T19:28:57.387Z,14.42
2024-02-26T19:31:30.836Z,14.41
2024-02-26T19:34:02.551Z,14.40
2024-02-26T19:36:36.130Z,14.40
2024-02-26T19:39:06.966Z,14.40
2024-02-26T19:41:37.652Z,14.39
2024-02-26T19:44:08.448Z,14.39
2024-02-26T19:46:39.124Z,14.39
2024-02-26T19:49:11.839Z,14.37
2024-02-26T19:51:44.381Z,14.37
2024-02-26T19:54:15.244Z,14.36
2024-02-26T19:56:47.817Z,14.36
2024-02-26T19:59:20.178Z,14.35
2024-02-26T20:01:50.879Z,14.34
2024-02-26T20:04:21.680Z,14.33
2024-02-26T20:06:52.519Z,14.33
2024-02-26T20:09:27.867Z,14.33
2024-02-26T20:12:00.867Z,14.32
2024-02-26T20:14:31.805Z,14.31
2024-02-26T20:17:03.864Z,14.29
2024-02-26T20:19:34.890Z,14.30
2024-02-26T20:22:05.907Z,14.29
2024-02-26T20:24:36.665Z,14.29
2024-02-26T20:27:08.398Z,14.28
2024-02-26T20:29:39.957Z,14.28
2024-02-26T20:32:11.147Z,14.27
2024-02-26T20:34:42.496Z,14.26
2024-02-26T20:37:14.623Z,14.25
2024-02-26T20:39:43.806Z,14.24
2024-02-26T20:42:14.636Z,14.22
2024-02-26T20:44:46.145Z,14.21
2024-02-26T20:47:19.092Z,14.20
2024-02-26T20:49:49.976Z,14.19
2024-02-26T20:52:20.886Z,14.17
2024-02-26T20:54:51.528Z,14.17
2024-02-26T20:57:22.228Z,14.16
2024-02-26T20:59:52.871Z,14.15
2024-02-26T21:02:29.606Z,14.14
2024-02-26T21:05:04.848Z,14.11
2024-02-26T21:07:35.694Z,14.09
2024-02-26T21:10:08.816Z,14.06
2024-02-26T21:12:39.735Z,14.03
2024-02-26T21:15:11.816Z,13.99
2024-02-26T21:17:42.522Z,13.96
2024-02-26T21:20:16.240Z,13.92
2024-02-26T21:22:47.262Z,13.88
2024-02-26T21:25:18.603Z,13.85
2024-02-26T21:27:49.247Z,13.82
2024-02-26T21:30:20.018Z,13.79
2024-02-26T21:32:51.358Z,13.75
2024-02-26T21:35:22.356Z,13.71
2024-02-26T21:37:52.954Z,13.67
2024-02-26T21:40:23.604Z,13.65
2024-02-26T21:42:54.246Z,13.61
2024-02-26T21:45:24.962Z,13.57
2024-02-26T21:47:55.866Z,13.53
2024-02-26T21:50:26.593Z,13.49
2024-02-26T21:52:57.233Z,13.46
2024-02-26T21:55:29.523Z,13.43
2024-02-26T21:58:00.179Z,13.40
2024-02-26T22:00:30.858Z,13.38
2024-02-26T22:03:01.538Z,13.36
2024-02-26T22:05:32.246Z,13.33
2024-02-26T22:08:02.877Z,13.31
2024-02-26T22:10:33.541Z,13.28
2024-02-26T22:13:04.266Z,13.26
2024-02-26T22:15:34.960Z,13.24
2024-02-26T22:18:06.009Z,13.22
2024-02-26T22:20:36.978Z,13.19
2024-02-26T22:23:08.167Z,13.17
2024-02-26T22:25:38.805Z,13.16
2024-02-26T22:28:09.610Z,13.14
2024-02-26T22:30:40.368Z,13.13
2024-02-26T22:33:11.296Z,13.11
2024-02-26T22:35:42.082Z,13.09
2024-02-26T22:38:12.856Z,13.06
2024-02-26T22:40:43.547Z,13.04
2024-02-26T22:43:14.264Z,13.02
2024-02-26T22:45:46.053Z,13.01
2024-02-26T22:48:15.437Z,13.00
2024-02-26T22:50:46.566Z,12.97
2024-02-26T22:53:17.223Z,12.96
2024-02-26T22:55:51.642Z,12.94
2024-02-26T22:58:22.358Z,12.92
2024-02-26T23:00:54.522Z,12.90
2024-02-26T23:03:25.387Z,12.88
2024-02-26T23:05:56.162Z,12.84
2024-02-26T23:08:26.979Z,12.84
2024-02-26T23:10:57.704Z,12.84
2024-02-26T23:13:28.467Z,12.82
2024-02-26T23:15:59.086Z,12.81
2024-02-26T23:18:29.966Z,12.80
2024-02-26T23:21:00.852Z,12.79
2024-02-26T23:23:32.073Z,12.79
2024-02-26T23:26:02.706Z,12.78
2024-02-26T23:28:33.334Z,12.78
2024-02-26T23:31:04.019Z,12.76
2024-02-26T23:33:34.943Z,12.72
2024-02-26T23:36:06.158Z,12.67
2024-02-26T23:38:36.855Z,12.64
2024-02-26T23:41:08.225Z,12.62
2024-02-26T23:43:38.808Z,12.60
2024-02-26T23:46:10.315Z,12.58
2024-02-26T23:48:41.014Z,12.56
2024-02-26T23:51:11.825Z,12.55
2024-02-26T23:53:42.473Z,12.52
2024-02-26T23:56:13.130Z,12.50
2024-02-26T23:58:43.726Z,12.48
